sensor_id;sensor_type;location;lat;lon;timestamp;P1;durP1;ratioP1;P2;durP2;ratioP2
63621;SDS011;49770;47.544;19.074;2022-09-09T04:47:37;7.25;;;4.57;;
63621;SDS011;49770;47.544;19.074;2022-09-09T04:50:42;5.10;;;4.60;;
63621;SDS011;49770;47.544;19.074;2022-09-09T05:04:53;4.62;;;4.22;;
63621;SDS011;49770;47.544;19.074;2022-09-09T05:11:16;7.85;;;5.05;;
63621;SDS011;49770;47.544;19.074;2022-09-09T05:14:21;6.80;;;6.10;;
63621;SDS011;49770;47.544;19.074;2022-09-09T05:17:25;7.00;;;4.47;;
63621;SDS011;49770;47.544;19.074;2022-09-09T05:20:28;5.75;;;3.90;;
63621;SDS011;49770;47.544;19.074;2022-09-09T05:23:30;6.43;;;4.60;;
63621;SDS011;49770;47.544;19.074;2022-09-09T05:26:34;8.23;;;4.35;;
63621;SDS011;49770;47.544;19.074;2022-09-09T05:29:37;5.07;;;4.57;;
63621;SDS011;49770;47.544;19.074;2022-09-09T05:32:41;5.57;;;3.80;;
63621;SDS011;49770;47.544;19.074;2022-09-09T05:35:44;6.87;;;3.35;;
63621;SDS011;49770;47.544;19.074;2022-09-09T05:38:47;4.50;;;4.10;;
63621;SDS011;49770;47.544;19.074;2022-09-09T05:41:50;5.40;;;3.83;;
63621;SDS011;49770;47.544;19.074;2022-09-09T05:44:53;6.30;;;3.78;;
63621;SDS011;49770;47.544;19.074;2022-09-09T05:47:56;4.50;;;4.10;;
63621;SDS011;49770;47.544;19.074;2022-09-09T05:51:00;4.65;;;3.72;;
63621;SDS011;49770;47.544;19.074;2022-09-09T05:54:04;5.43;;;4.10;;
63621;SDS011;49770;47.544;19.074;2022-09-09T05:57:07;4.32;;;3.80;;
63621;SDS011;49770;47.544;19.074;2022-09-09T06:03:48;6.10;;;3.78;;
63621;SDS011;49770;47.544;19.074;2022-09-09T06:06:53;4.20;;;3.60;;
63621;SDS011;49770;47.544;19.074;2022-09-09T06:09:56;6.18;;;3.92;;
63621;SDS011;49770;47.544;19.074;2022-09-09T06:12:59;4.15;;;3.75;;
63621;SDS011;49770;47.544;19.074;2022-09-09T06:16:01;5.80;;;3.85;;
63621;SDS011;49770;47.544;19.074;2022-09-09T06:19:05;4.07;;;3.78;;
63621;SDS011;49770;47.544;19.074;2022-09-09T06:22:08;4.93;;;3.92;;
63621;SDS011;49770;47.544;19.074;2022-09-09T06:25:14;4.75;;;3.20;;
63621;SDS011;49770;47.544;19.074;2022-09-09T06:28:17;8.55;;;3.70;;
63621;SDS011;49770;47.544;19.074;2022-09-09T06:31:22;3.45;;;3.22;;
63621;SDS011;49770;47.544;19.074;2022-09-09T06:34:32;5.22;;;3.20;;
63621;SDS011;49770;47.544;19.074;2022-09-09T06:37:35;4.15;;;2.80;;
63621;SDS011;49770;47.544;19.074;2022-09-09T06:40:39;4.15;;;2.75;;
63621;SDS011;49770;47.544;19.074;2022-09-09T06:43:42;3.22;;;2.92;;
63621;SDS011;49770;47.544;19.074;2022-09-09T06:46:46;3.92;;;2.50;;
63621;SDS011;49770;47.544;19.074;2022-09-09T06:49:50;3.35;;;2.70;;
63621;SDS011;49770;47.544;19.074;2022-09-09T06:52:53;3.75;;;2.65;;
63621;SDS011;49770;47.544;19.074;2022-09-09T06:55:56;6.40;;;2.90;;
63621;SDS011;49770;47.544;19.074;2022-09-09T06:59:00;3.22;;;2.20;;
63621;SDS011;49770;47.544;19.074;2022-09-09T07:02:05;2.62;;;2.42;;
63621;SDS011;49770;47.544;19.074;2022-09-09T07:05:08;3.15;;;2.53;;
63621;SDS011;49770;47.544;19.074;2022-09-09T07:08:11;2.85;;;2.65;;
63621;SDS011;49770;47.544;19.074;2022-09-09T07:11:15;5.10;;;2.92;;
63621;SDS011;49770;47.544;19.074;2022-09-09T07:14:18;3.10;;;2.80;;
63621;SDS011;49770;47.544;19.074;2022-09-09T07:17:22;3.33;;;2.83;;
63621;SDS011;49770;47.544;19.074;2022-09-09T07:20:25;2.92;;;2.72;;
63621;SDS011;49770;47.544;19.074;2022-09-09T07:23:39;4.07;;;2.70;;
63621;SDS011;49770;47.544;19.074;2022-09-09T07:26:46;3.87;;;2.60;;
63621;SDS011;49770;47.544;19.074;2022-09-09T07:29:49;4.28;;;2.75;;
63621;SDS011;49770;47.544;19.074;2022-09-09T07:32:53;2.80;;;2.60;;
63621;SDS011;49770;47.544;19.074;2022-09-09T07:36:01;4.45;;;2.47;;
63621;SDS011;49770;47.544;19.074;2022-09-09T07:39:12;2.40;;;2.20;;
63621;SDS011;49770;47.544;19.074;2022-09-09T07:42:16;3.85;;;2.30;;
63621;SDS011;49770;47.544;19.074;2022-09-09T07:45:19;2.60;;;2.40;;
63621;SDS011;49770;47.544;19.074;2022-09-09T07:48:22;5.78;;;2.80;;
63621;SDS011;49770;47.544;19.074;2022-09-09T07:51:29;2.22;;;2.00;;
63621;SDS011;49770;47.544;19.074;2022-09-09T08:16:36;1.80;;;1.70;;
63621;SDS011;49770;47.544;19.074;2022-09-09T08:37:58;2.78;;;2.03;;
63621;SDS011;49770;47.544;19.074;2022-09-09T10:01:45;5.75;;;1.52;;
63621;SDS011;49770;47.544;19.074;2022-09-09T10:04:59;4.80;;;1.10;;
63621;SDS011;49770;47.544;19.074;2022-09-09T10:08:44;1.40;;;1.30;;
63621;SDS011;49770;47.544;19.074;2022-09-09T10:15:26;2.55;;;1.40;;
63621;SDS011;49770;47.544;19.074;2022-09-09T10:18:58;1.00;;;1.00;;
63621;SDS011;49770;47.544;19.074;2022-09-09T10:26:13;2.35;;;1.40;;
63621;SDS011;49770;47.544;19.074;2022-09-09T10:52:28;3.65;;;1.10;;
63621;SDS011;49770;47.544;19.074;2022-09-09T10:59:43;1.17;;;1.17;;
63621;SDS011;49770;47.544;19.074;2022-09-09T11:02:52;1.40;;;1.27;;
63621;SDS011;49770;47.544;19.074;2022-09-09T11:06:04;1.50;;;1.40;;
63621;SDS011;49770;47.544;19.074;2022-09-09T11:09:13;1.40;;;1.30;;
63621;SDS011;49770;47.544;19.074;2022-09-09T11:19:34;1.67;;;1.15;;
63621;SDS011;49770;47.544;19.074;2022-09-09T11:22:58;1.58;;;1.12;;
63621;SDS011;49770;47.544;19.074;2022-09-09T11:26:08;2.80;;;1.40;;
63621;SDS011;49770;47.544;19.074;2022-09-09T11:29:28;2.25;;;1.48;;
63621;SDS011;49770;47.544;19.074;2022-09-09T11:36:30;1.42;;;1.10;;
63621;SDS011;49770;47.544;19.074;2022-09-09T11:40:08;1.58;;;1.12;;
63621;SDS011;49770;47.544;19.074;2022-09-09T11:43:24;1.50;;;1.40;;
63621;SDS011;49770;47.544;19.074;2022-09-09T11:46:49;1.40;;;1.30;;
63621;SDS011;49770;47.544;19.074;2022-09-09T11:49:54;1.02;;;1.02;;
63621;SDS011;49770;47.544;19.074;2022-09-09T11:57:02;1.12;;;1.00;;
63621;SDS011;49770;47.544;19.074;2022-09-09T11:59:50;1.35;;;1.00;;
63621;SDS011;49770;47.544;19.074;2022-09-09T12:02:57;3.28;;;1.40;;
63621;SDS011;49770;47.544;19.074;2022-09-09T12:06:00;1.00;;;0.93;;
63621;SDS011;49770;47.544;19.074;2022-09-09T12:12:41;1.02;;;0.93;;
63621;SDS011;49770;47.544;19.074;2022-09-09T12:15:55;1.10;;;1.10;;
63621;SDS011;49770;47.544;19.074;2022-09-09T12:19:19;1.67;;;1.17;;
63621;SDS011;49770;47.544;19.074;2022-09-09T12:29:04;1.98;;;1.10;;
63621;SDS011;49770;47.544;19.074;2022-09-09T12:32:25;3.95;;;1.20;;
63621;SDS011;49770;47.544;19.074;2022-09-09T12:35:28;2.05;;;1.30;;
63621;SDS011;49770;47.544;19.074;2022-09-09T12:38:37;2.58;;;1.23;;
63621;SDS011;49770;47.544;19.074;2022-09-09T12:41:50;1.40;;;1.15;;
63621;SDS011;49770;47.544;19.074;2022-09-09T12:44:59;6.40;;;1.20;;
63621;SDS011;49770;47.544;19.074;2022-09-09T12:48:08;1.10;;;1.00;;
63621;SDS011;49770;47.544;19.074;2022-09-09T12:51:48;2.00;;;1.00;;
63621;SDS011;49770;47.544;19.074;2022-09-09T12:54:45;3.08;;;1.40;;
63621;SDS011;49770;47.544;19.074;2022-09-09T12:57:49;1.10;;;1.10;;
63621;SDS011;49770;47.544;19.074;2022-09-09T13:00:54;1.25;;;1.25;;
63621;SDS011;49770;47.544;19.074;2022-09-09T13:03:59;1.98;;;1.20;;
63621;SDS011;49770;47.544;19.074;2022-09-09T13:07:05;3.22;;;1.52;;
63621;SDS011;49770;47.544;19.074;2022-09-09T13:10:12;2.83;;;1.20;;
63621;SDS011;49770;47.544;19.074;2022-09-09T13:13:34;1.50;;;1.40;;
63621;SDS011;49770;47.544;19.074;2022-09-09T13:16:41;1.85;;;1.20;;
63621;SDS011;49770;47.544;19.074;2022-09-09T13:19:44;1.33;;;1.12;;
63621;SDS011;49770;47.544;19.074;2022-09-09T13:22:49;10.15;;;1.48;;
63621;SDS011;49770;47.544;19.074;2022-09-09T13:25:53;1.20;;;1.10;;
63621;SDS011;49770;47.544;19.074;2022-09-09T13:29:09;0.98;;;0.88;;
63621;SDS011;49770;47.544;19.074;2022-09-09T13:32:22;1.35;;;1.10;;
63621;SDS011;49770;47.544;19.074;2022-09-09T13:35:27;1.35;;;1.20;;
63621;SDS011;49770;47.544;19.074;2022-09-09T13:39:16;1.40;;;1.30;;
63621;SDS011;49770;47.544;19.074;2022-09-09T13:41:53;2.50;;;1.10;;
63621;SDS011;49770;47.544;19.074;2022-09-09T13:44:56;1.30;;;1.12;;
63621;SDS011;49770;47.544;19.074;2022-09-09T13:48:08;2.25;;;1.17;;
63621;SDS011;49770;47.544;19.074;2022-09-09T13:51:26;1.35;;;1.20;;
63621;SDS011;49770;47.544;19.074;2022-09-09T13:54:40;1.20;;;1.10;;
63621;SDS011;49770;47.544;19.074;2022-09-09T13:57:51;1.20;;;1.10;;
63621;SDS011;49770;47.544;19.074;2022-09-09T14:00:57;1.15;;;1.02;;
63621;SDS011;49770;47.544;19.074;2022-09-09T14:04:14;1.45;;;1.08;;
63621;SDS011;49770;47.544;19.074;2022-09-09T14:07:18;1.58;;;1.20;;
63621;SDS011;49770;47.544;19.074;2022-09-09T14:33:34;2.50;;;1.60;;
63621;SDS011;49770;47.544;19.074;2022-09-09T14:36:37;1.30;;;1.20;;
